Time;durP1;ratioP1;P1;durP2;ratioP2;P2;SDS_P1;SDS_P2;PMS_P1;PMS_P2;Temp;Humidity;BMP_temperature;BMP_pressure;BME280_temperature;BME280_humidity;BME280_pressure;Samples;Min_cycle;Max_cycle;Signal;HPM_P1;HPM_P2
2023/01/05 00:02:01;;;;;;;4.05;0.90;;;;;;;12.07;100.00;99910.50;4990770;28;20050;-72
2023/01/05 00:04:26;;;;;;;2.03;0.57;;;;;;;11.94;100.00;99914.72;4960158;28;20183;-72
2023/01/05 00:06:52;;;;;;;5.03;1.50;;;;;;;11.97;100.00;99922.81;4980715;28;20067;-73
2023/01/05 00:09:18;;;;;;;3.22;1.10;;;;;;;12.13;100.00;99925.19;4988932;28;20153;-73
2023/01/05 00:22:55;;;;;;;4.43;1.20;;;;;;;12.00;100.00;99922.06;4997410;28;20400;-73
2023/01/05 00:25:24;;;;;;;0.80;0.30;;;;;;;11.79;100.00;99927.38;4977474;28;20043;-74
2023/01/05 00:27:52;;;;;;;5.10;0.60;;;;;;;11.96;100.00;99950.97;5029526;28;20103;-73
2023/01/05 00:30:39;;;;;;;0.98;0.65;;;;;;;11.95;100.00;99922.44;5036868;28;20563;-74
2023/01/05 00:33:11;;;;;;;0.47;0.47;;;;;;;11.92;100.00;99930.53;5041200;28;20037;-74
2023/01/05 00:35:37;;;;;;;5.10;0.90;;;;;;;11.71;100.00;99933.94;5033616;28;21284;-74
2023/01/05 00:38:05;;;;;;;3.38;0.60;;;;;;;11.74;100.00;99941.25;5026591;28;20041;-73
2023/01/05 00:40:30;;;;;;;3.95;0.88;;;;;;;11.84;100.00;99935.13;5028558;28;20394;-73
2023/01/05 00:42:56;;;;;;;4.13;0.45;;;;;;;11.67;100.00;99943.94;5023698;28;20127;-74
2023/01/05 00:45:21;;;;;;;6.40;1.50;;;;;;;11.88;100.00;99943.22;5006031;28;20441;-73
2023/01/05 00:47:48;;;;;;;2.03;0.80;;;;;;;11.79;100.00;99935.47;5038662;28;20052;-73
2023/01/05 00:50:16;;;;;;;1.35;0.50;;;;;;;11.83;100.00;99949.75;5035672;28;20041;-71
2023/01/05 00:52:42;;;;;;;0.80;0.45;;;;;;;11.88;100.00;99937.84;5041920;28;20021;-72
2023/01/05 00:55:08;;;;;;;4.65;0.55;;;;;;;11.67;100.00;99952.78;5023668;28;20032;-71
2023/01/05 00:57:34;;;;;;;1.13;0.85;;;;;;;11.71;100.00;99940.06;5031817;28;20048;-72
2023/01/05 01:00:02;;;;;;;1.05;0.63;;;;;;;11.77;100.00;99938.56;5036411;28;20386;-73
2023/01/05 01:02:29;;;;;;;1.65;0.85;;;;;;;11.77;100.00;99945.88;5034321;28;20108;-73
2023/01/05 01:04:55;;;;;;;0.90;0.60;;;;;;;11.78;100.00;99950.91;5032901;28;20137;-74
2023/01/05 01:07:20;;;;;;;2.20;0.90;;;;;;;11.89;100.00;99947.47;5033061;28;20027;-74
2023/01/05 01:09:46;;;;;;;1.40;0.60;;;;;;;11.95;99.67;99952.13;5015512;28;20116;-72
2023/01/05 01:12:11;;;;;;;9.25;1.02;;;;;;;12.01;99.14;99950.59;5037421;28;20040;-71
2023/01/05 01:14:38;;;;;;;5.20;1.38;;;;;;;12.00;99.15;99959.81;5023067;28;20025;-72
2023/01/05 01:17:03;;;;;;;3.08;0.80;;;;;;;12.09;98.60;99938.66;5039513;28;20029;-72
2023/01/05 01:19:29;;;;;;;6.28;1.25;;;;;;;12.15;98.35;99953.34;5039820;28;20051;-72
2023/01/05 01:21:55;;;;;;;4.38;1.77;;;;;;;12.04;98.20;99957.91;5033254;28;20021;-72
2023/01/05 01:24:23;;;;;;;2.65;0.70;;;;;;;11.88;98.53;99964.81;5038478;28;20029;-73
2023/01/05 01:26:49;;;;;;;1.25;0.47;;;;;;;11.90;98.34;99967.91;5038700;28;20033;-74
2023/01/05 01:29:18;;;;;;;2.47;0.70;;;;;;;11.77;98.97;99957.44;5040415;28;20040;-71
2023/01/05 01:31:46;;;;;;;3.28;0.52;;;;;;;11.78;98.97;99974.41;5036009;28;20071;-72
2023/01/05 01:34:12;;;;;;;0.60;0.50;;;;;;;11.69;98.57;99980.13;5036572;28;20033;-74
2023/01/05 01:36:38;;;;;;;8.30;0.90;;;;;;;11.74;99.16;99979.78;5023639;28;20029;-74
2023/01/05 01:39:04;;;;;;;3.13;0.45;;;;;;;11.61;100.00;99992.00;5038666;28;20036;-73
2023/01/05 01:41:33;;;;;;;4.22;0.70;;;;;;;11.75;99.77;99991.34;5023671;28;20082;-74
2023/01/05 01:43:59;;;;;;;2.65;0.77;;;;;;;11.84;99.38;99994.47;5036295;28;20037;-73
2023/01/05 01:46:26;;;;;;;1.25;0.73;;;;;;;11.56;99.03;99983.50;5012650;28;20061;-73
2023/01/05 01:48:55;;;;;;;0.45;0.45;;;;;;;11.57;99.15;99996.63;5031124;28;20040;-74
2023/01/05 01:51:46;;;;;;;3.53;0.98;;;;;;;11.61;98.89;99985.88;5025445;28;20398;-74
2023/01/05 01:54:16;;;;;;;4.18;0.20;;;;;;;11.66;98.62;99990.91;5029374;28;20556;-73
2023/01/05 01:56:51;;;;;;;5.40;0.65;;;;;;;11.69;97.97;100004.41;5039658;28;20666;-72
2023/01/05 01:59:17;;;;;;;3.90;0.70;;;;;;;11.62;97.87;100006.28;5023254;28;20108;-72
2023/01/05 02:01:43;;;;;;;8.90;0.65;;;;;;;11.57;98.05;99987.78;5039569;28;20087;-72
2023/01/05 02:04:09;;;;;;;0.52;0.43;;;;;;;11.60;97.70;100001.25;5040513;28;20037;-71
2023/01/05 02:06:36;;;;;;;1.58;0.55;;;;;;;11.59;97.03;99998.94;5036179;28;20033;-71
2023/01/05 02:09:02;;;;;;;0.57;0.50;;;;;;;11.64;97.09;100003.97;5041406;28;20036;-71
2023/01/05 02:11:54;;;;;;;0.65;0.40;;;;;;;11.73;96.36;99996.34;5030811;28;20056;-71
2023/01/05 02:14:33;;;;;;;0.30;0.30;;;;;;;11.76;95.91;99998.28;5037298;28;20384;-72
2023/01/05 02:17:08;;;;;;;4.03;0.60;;;;;;;11.81;95.32;100003.31;5041650;28;20033;-72
2023/01/05 02:20:23;;;;;;;2.88;0.45;;;;;;;11.70;96.27;99997.09;5030523;28;20040;-72
2023/01/05 02:23:07;;;;;;;1.13;0.52;;;;;;;11.79;95.39;100000.22;5017438;28;20045;-72
2023/01/05 02:25:45;;;;;;;1.17;0.75;;;;;;;11.85;95.66;99998.72;5040097;28;20487;-72
2023/01/05 02:28:54;;;;;;;5.90;0.82;;;;;;;11.68;94.36;99997.50;5050342;28;20029;-72
2023/01/05 02:31:53;;;;;;;0.57;0.57;;;;;;;11.51;95.02;99997.34;5018822;28;20052;-73
2023/01/05 02:34:50;;;;;;;3.45;0.55;;;;;;;11.56;94.89;99999.69;4981333;28;20046;-73
2023/01/05 02:37:27;;;;;;;5.00;0.70;;;;;;;11.60;94.86;100003.97;4959829;28;20042;-72
2023/01/05 02:40:12;;;;;;;2.05;0.60;;;;;;;11.69;93.96;99990.19;4964111;28;20066;-72
2023/01/05 02:42:40;;;;;;;1.23;0.73;;;;;;;11.54;93.93;99997.38;4953409;28;20038;-72
2023/01/05 02:45:07;;;;;;;1.58;0.63;;;;;;;11.76;93.12;100006.38;4957497;28;20034;-72
2023/01/05 02:47:41;;;;;;;0.80;0.80;;;;;;;11.70;92.88;100002.50;4968926;28;20703;-72
2023/01/05 02:50:17;;;;;;;0.20;0.20;;;;;;;11.64;92.10;100003.97;4961353;28;20525;-73
2023/01/05 02:52:54;;;;;;;0.80;0.50;;;;;;;11.41;91.96;100023.09;4945052;28;20550;-72
2023/01/05 02:55:26;;;;;;;1.75;0.40;;;;;;;11.52;92.36;100001.59;4981173;28;20031;-72
2023/01/05 02:58:09;;;;;;;3.25;0.45;;;;;;;11.35;91.77;100003.03;4969865;28;20046;-72
2023/01/05 03:00:49;;;;;;;3.30;0.47;;;;;;;11.48;91.79;100008.88;4962292;28;20061;-74
2023/01/05 03:03:24;;;;;;;5.68;0.85;;;;;;;11.54;91.29;100023.56;4975197;28;20061;-72
2023/01/05 03:06:14;;;;;;;1.48;0.50;;;;;;;11.50;90.81;100022.75;4966628;28;20146;-72
2023/01/05 03:08:49;;;;;;;0.47;0.22;;;;;;;11.44;90.79;100019.66;4954753;28;20039;-72
2023/01/05 03:14:04;;;;;;;2.92;0.68;;;;;;;11.37;90.43;100032.31;5031541;28;20124;-72
2023/01/05 03:16:34;;;;;;;3.53;0.80;;;;;;;11.34;90.14;100030.38;5035694;28;20121;-72
2023/01/05 03:35:57;;;;;;;0.40;0.38;;;;;;;11.42;90.16;100059.69;5030637;28;20033;-72
2023/01/05 03:38:43;;;;;;;0.57;0.47;;;;;;;11.47;89.69;100063.97;5011950;28;20084;-72
2023/01/05 03:41:11;;;;;;;1.35;0.40;;;;;;;11.38;89.81;100048.09;5030364;28;20121;-73
2023/01/05 03:43:40;;;;;;;0.57;0.45;;;;;;;11.29;90.10;100053.06;5028487;28;20060;-72
2023/01/05 03:46:14;;;;;;;1.00;0.30;;;;;;;11.11;90.37;100054.81;5028231;28;21633;-72
2023/01/05 03:48:42;;;;;;;1.27;0.40;;;;;;;11.31;90.10;100066.16;5040604;28;20037;-72
2023/01/05 03:51:08;;;;;;;1.45;0.25;;;;;;;11.43;89.16;100049.69;5013745;28;20035;-72
2023/01/05 03:53:35;;;;;;;0.52;0.40;;;;;;;11.30;89.03;100064.63;5027920;28;20029;-72
2023/01/05 03:56:01;;;;;;;1.75;0.25;;;;;;;11.32;88.52;100073.09;5031319;28;20546;-72
2023/01/05 03:58:27;;;;;;;0.90;0.55;;;;;;;11.29;89.15;100076.53;5030850;28;20041;-73
2023/01/05 04:00:53;;;;;;;3.55;0.38;;;;;;;11.09;90.06;100072.53;5016006;28;20029;-73
2023/01/05 04:03:20;;;;;;;0.10;0.10;;;;;;;11.09;90.40;100086.75;5029889;28;20095;-73
2023/01/05 04:05:47;;;;;;;0.90;0.30;;;;;;;11.09;89.73;100075.22;5031121;28;20032;-72
2023/01/05 04:08:14;;;;;;;0.13;0.13;;;;;;;11.21;90.29;100075.69;5030367;28;20022;-73
2023/01/05 04:10:39;;;;;;;2.17;0.82;;;;;;;11.02;90.17;100084.00;5030640;28;20029;-73
2023/01/05 04:13:06;;;;;;;2.20;0.38;;;;;;;11.03;90.39;100082.88;5030371;28;20030;-73
2023/01/05 04:15:32;;;;;;;1.70;0.40;;;;;;;10.98;89.99;100087.81;5030356;28;20018;-73
2023/01/05 04:17:58;;;;;;;0.77;0.45;;;;;;;11.02;89.71;100086.72;5030611;28;20490;-73
2023/01/05 04:20:24;;;;;;;2.15;0.47;;;;;;;11.07;88.95;100089.03;5030016;28;20048;-72
2023/01/05 04:22:50;;;;;;;0.60;0.60;;;;;;;11.03;89.27;100090.97;5027088;28;20030;-73
2023/01/05 04:25:18;;;;;;;4.32;0.63;;;;;;;10.95;88.83;100097.44;5030272;28;20160;-72
2023/01/05 04:27:44;;;;;;;2.63;0.28;;;;;;;10.88;89.32;100100.81;5031125;28;20068;-72
2023/01/05 04:30:10;;;;;;;3.25;0.35;;;;;;;11.02;88.72;100105.56;5029788;28;20068;-72
2023/01/05 04:32:36;;;;;;;1.15;0.20;;;;;;;10.97;88.09;100105.91;5029159;28;20048;-73
2023/01/05 04:35:02;;;;;;;7.95;0.60;;;;;;;10.86;88.65;100110.41;5030316;28;20037;-72
2023/01/05 04:37:32;;;;;;;2.80;0.93;;;;;;;10.75;88.64;100102.22;5029326;28;20536;-72
2023/01/05 04:39:59;;;;;;;1.90;0.40;;;;;;;10.81;88.57;100099.97;5030847;28;20044;-72
2023/01/05 04:42:24;;;;;;;1.45;0.68;;;;;;;10.63;89.80;100107.88;5029815;28;20025;-73
2023/01/05 04:44:53;;;;;;;0.75;0.40;;;;;;;10.76;89.34;100117.22;5029977;28;20037;-72
2023/01/05 04:47:19;;;;;;;4.85;0.60;;;;;;;10.62;89.09;100119.00;5030026;28;20390;-73
2023/01/05 04:49:46;;;;;;;4.18;0.68;;;;;;;10.72;88.67;100119.09;5027339;28;20041;-72
2023/01/05 04:52:11;;;;;;;4.28;0.47;;;;;;;10.60;88.58;100127.47;5029658;28;20013;-72
2023/01/05 04:54:37;;;;;;;3.63;0.38;;;;;;;10.71;88.40;100125.66;5026502;28;20025;-72
2023/01/05 04:57:04;;;;;;;0.50;0.40;;;;;;;10.85;87.81;100133.09;5021037;28;20672;-72
2023/01/05 04:59:30;;;;;;;0.98;0.68;;;;;;;10.70;88.20;100136.78;5029006;28;20060;-72
2023/01/05 05:02:00;;;;;;;5.13;0.40;;;;;;;10.64;88.55;100139.03;5026703;28;20029;-72
2023/01/05 05:04:28;;;;;;;1.13;0.73;;;;;;;10.64;88.39;100124.81;5027984;28;20287;-72
2023/01/05 05:06:54;;;;;;;1.73;0.47;;;;;;;10.71;88.43;100151.81;5029387;28;20455;-73
2023/01/05 05:09:23;;;;;;;2.75;0.20;;;;;;;10.76;88.29;100141.47;5046239;28;20044;-72
2023/01/05 05:11:49;;;;;;;3.67;0.98;;;;;;;10.61;88.63;100155.91;5038364;28;20029;-72
2023/01/05 05:14:15;;;;;;;3.38;0.60;;;;;;;10.73;88.51;100142.22;5029141;28;20390;-72
2023/01/05 05:16:41;;;;;;;1.00;0.50;;;;;;;10.58;89.38;100155.88;5026579;28;20029;-72
2023/01/05 05:19:09;;;;;;;1.30;0.30;;;;;;;10.71;89.50;100160.66;5029015;28;20114;-73
2023/01/05 05:21:34;;;;;;;0.40;0.40;;;;;;;10.84;88.81;100163.88;5029102;28;20017;-72
2023/01/05 05:24:00;;;;;;;2.72;0.40;;;;;;;10.81;88.30;100154.63;5029395;28;20087;-73
2023/01/05 05:26:27;;;;;;;0.30;0.22;;;;;;;10.72;88.54;100172.97;5029061;28;20042;-73
2023/01/05 05:28:53;;;;;;;0.63;0.40;;;;;;;10.66;89.15;100155.63;5029501;28;20406;-72
2023/01/05 05:31:18;;;;;;;0.47;0.43;;;;;;;10.58;89.77;100177.41;5029017;28;20037;-72
2023/01/05 05:33:44;;;;;;;4.18;0.85;;;;;;;10.62;90.10;100168.25;5030080;28;20120;-73
2023/01/05 05:36:09;;;;;;;0.40;0.38;;;;;;;10.64;90.20;100165.97;5027243;28;20021;-73
2023/01/05 05:38:35;;;;;;;0.65;0.40;;;;;;;10.74;89.15;100170.69;5030102;28;20061;-72
2023/01/05 05:41:00;;;;;;;0.30;0.30;;;;;;;10.63;90.21;100163.63;5030110;28;20087;-72
2023/01/05 05:43:26;;;;;;;1.20;0.52;;;;;;;10.64;90.03;100174.06;5030010;28;20022;-72
2023/01/05 05:45:51;;;;;;;1.65;0.98;;;;;;;10.65;88.99;100170.19;5028741;28;20041;-72
2023/01/05 05:48:17;;;;;;;2.75;0.50;;;;;;;10.67;89.47;100176.00;5029502;28;20038;-73
2023/01/05 05:50:44;;;;;;;5.15;0.60;;;;;;;10.63;89.80;100172.47;5030291;28;20026;-73
2023/01/05 05:53:09;;;;;;;0.30;0.30;;;;;;;10.67;89.73;100192.16;5029731;28;20029;-72
2023/01/05 05:55:35;;;;;;;1.95;0.55;;;;;;;10.59;89.87;100190.50;5030729;28;20079;-73
2023/01/05 05:58:00;;;;;;;1.23;0.40;;;;;;;10.67;89.29;100199.44;5030107;28;20064;-73
2023/01/05 06:00:26;;;;;;;0.20;0.20;;;;;;;10.69;89.39;100211.41;5022140;28;20033;-72
2023/01/05 06:02:51;;;;;;;2.10;0.57;;;;;;;10.67;89.25;100204.84;5024621;28;20099;-72
2023/01/05 06:05:17;;;;;;;6.50;1.23;;;;;;;10.76;88.92;100206.09;5028962;28;20026;-73
2023/01/05 06:07:42;;;;;;;0.40;0.40;;;;;;;10.78;88.43;100224.63;5030368;28;20108;-72
2023/01/05 06:10:09;;;;;;;2.58;0.30;;;;;;;10.65;88.96;100215.97;5026096;28;20483;-72
2023/01/05 06:12:34;;;;;;;0.40;0.30;;;;;;;10.66;89.37;100227.53;5036158;28;20064;-72
2023/01/05 06:14:59;;;;;;;3.72;0.40;;;;;;;10.70;89.28;100221.03;5033111;28;20049;-72
2023/01/05 06:17:25;;;;;;;0.88;0.52;;;;;;;10.76;89.16;100229.59;5031421;28;20109;-72
2023/01/05 06:19:50;;;;;;;4.05;0.75;;;;;;;10.86;88.60;100234.31;5033998;28;20029;-72
2023/01/05 06:22:16;;;;;;;0.30;0.30;;;;;;;10.78;88.75;100232.69;5030054;28;20025;-72
2023/01/05 06:24:41;;;;;;;0.20;0.20;;;;;;;10.56;89.63;100245.09;5033670;28;20072;-72
2023/01/05 06:27:06;;;;;;;1.27;0.40;;;;;;;10.68;89.16;100238.72;5031905;28;20083;-71
2023/01/05 06:29:32;;;;;;;1.13;0.65;;;;;;;10.65;89.98;100242.13;5034009;28;20041;-72
2023/01/05 06:31:57;;;;;;;1.17;0.60;;;;;;;10.69;89.34;100259.09;5030207;28;20053;-72
2023/01/05 06:34:23;;;;;;;1.05;0.55;;;;;;;10.58;89.93;100252.81;5044388;28;20033;-72
2023/01/05 06:36:48;;;;;;;3.63;0.30;;;;;;;10.73;89.74;100255.31;5041202;28;20021;-72
2023/01/05 06:39:14;;;;;;;3.53;0.50;;;;;;;10.67;88.92;100256.78;5031134;28;20045;-72
2023/01/05 06:41:39;;;;;;;0.30;0.30;;;;;;;10.79;88.65;100236.94;5030748;28;20115;-72
2023/01/05 06:44:05;;;;;;;2.22;0.30;;;;;;;10.73;88.37;100241.84;5030769;28;20040;-72
2023/01/05 06:46:31;;;;;;;5.15;1.13;;;;;;;10.78;87.93;100255.00;5050207;28;20476;-73
2023/01/05 06:48:56;;;;;;;3.83;0.43;;;;;;;10.81;87.63;100261.56;5040325;28;20029;-72
2023/01/05 06:51:22;;;;;;;0.60;0.50;;;;;;;10.64;87.92;100271.00;5033050;28;20098;-72
2023/01/05 06:53:47;;;;;;;1.70;0.60;;;;;;;10.75;88.25;100282.66;5027801;28;20038;-72
2023/01/05 06:56:13;;;;;;;1.20;0.60;;;;;;;10.89;87.95;100287.47;5035940;28;20104;-72
2023/01/05 06:58:38;;;;;;;1.30;0.35;;;;;;;10.69;87.86;100276.03;5032470;28;20022;-72
2023/01/05 07:01:04;;;;;;;2.25;0.50;;;;;;;10.50;89.08;100295.00;5031147;28;20453;-72
2023/01/05 07:03:29;;;;;;;4.55;0.75;;;;;;;10.80;88.26;100303.88;5025618;28;20432;-72
2023/01/05 07:05:55;;;;;;;0.60;0.60;;;;;;;10.60;88.48;100302.47;5032870;28;20036;-72
2023/01/05 07:08:20;;;;;;;8.07;0.95;;;;;;;10.67;88.19;100312.56;5033508;28;20409;-72
2023/01/05 07:10:46;;;;;;;4.38;0.47;;;;;;;10.63;88.85;100309.81;5032454;28;20040;-72
2023/01/05 07:13:11;;;;;;;2.35;0.82;;;;;;;10.69;87.85;100297.59;5028949;28;20104;-72
2023/01/05 07:15:36;;;;;;;3.97;0.68;;;;;;;10.70;87.85;100317.97;5033031;28;20034;-72
2023/01/05 07:18:02;;;;;;;0.50;0.50;;;;;;;10.58;88.21;100303.97;5046560;28;20151;-72
2023/01/05 07:20:27;;;;;;;0.63;0.28;;;;;;;10.71;87.88;100310.69;5030515;28;20021;-72
2023/01/05 07:22:53;;;;;;;11.40;0.80;;;;;;;10.71;86.25;100302.59;5030699;28;20465;-72
2023/01/05 07:25:18;;;;;;;1.98;0.88;;;;;;;10.74;86.18;100316.13;5028931;28;20037;-72
2023/01/05 07:27:51;;;;;;;3.53;0.65;;;;;;;10.84;86.22;100320.09;5031749;28;20083;-72
2023/01/05 07:30:17;;;;;;;4.68;1.20;;;;;;;10.51;86.93;100333.47;5033145;28;20029;-72
2023/01/05 07:32:43;;;;;;;4.50;1.38;;;;;;;10.58;86.83;100339.75;5030884;28;20490;-72
2023/01/05 07:35:08;;;;;;;1.52;0.55;;;;;;;10.75;86.74;100327.66;5029668;28;20018;-72
2023/01/05 07:37:33;;;;;;;2.97;0.82;;;;;;;10.74;85.83;100336.91;5032782;28;20037;-72
2023/01/05 07:39:59;;;;;;;2.97;0.50;;;;;;;10.45;86.87;100346.44;5031946;28;20037;-72
2023/01/05 07:42:25;;;;;;;0.88;0.25;;;;;;;10.51;86.63;100347.69;5031074;28;20029;-72
2023/01/05 07:44:51;;;;;;;1.98;0.70;;;;;;;10.62;87.29;100345.97;5031948;28;20037;-72
2023/01/05 07:47:17;;;;;;;0.98;0.32;;;;;;;10.70;86.74;100350.28;5031210;28;20030;-71
2023/01/05 07:49:43;;;;;;;3.10;1.27;;;;;;;10.68;86.94;100352.56;5032421;28;20018;-72
2023/01/05 07:52:08;;;;;;;4.10;0.88;;;;;;;10.66;87.22;100352.19;5038413;28;20410;-72
2023/01/05 07:54:34;;;;;;;0.77;0.30;;;;;;;10.57;87.54;100359.72;5038263;28;20025;-72
2023/01/05 07:56:59;;;;;;;2.95;0.32;;;;;;;10.73;86.76;100363.06;5052401;28;20044;-72
2023/01/05 07:59:25;;;;;;;1.85;0.77;;;;;;;10.75;87.04;100363.47;5052196;28;20044;-72
2023/01/05 08:01:50;;;;;;;2.05;0.77;;;;;;;10.76;86.66;100370.41;5046815;28;20040;-72
2023/01/05 08:04:16;;;;;;;1.10;0.60;;;;;;;10.86;86.82;100377.06;5026699;28;20033;-72
2023/01/05 08:06:41;;;;;;;2.05;0.60;;;;;;;11.00;86.85;100395.34;5031532;28;20029;-72
2023/01/05 08:11:55;;;;;;;0.55;0.35;;;;;;;10.84;86.66;100400.91;4998870;28;20089;-72
2023/01/05 08:14:21;;;;;;;3.00;0.50;;;;;;;10.71;87.85;100408.41;5031373;28;20044;-72
2023/01/05 08:16:46;;;;;;;1.90;0.60;;;;;;;10.92;87.35;100412.59;5031818;28;20033;-72
2023/01/05 08:19:12;;;;;;;1.85;0.80;;;;;;;10.97;86.85;100409.56;5029131;28;20029;-72
2023/01/05 08:21:37;;;;;;;1.50;0.77;;;;;;;10.84;86.61;100427.84;5035726;28;20025;-72
2023/01/05 08:24:03;;;;;;;2.20;0.55;;;;;;;10.76;87.26;100428.91;5029856;28;20064;-72
2023/01/05 08:26:29;;;;;;;2.42;0.60;;;;;;;10.67;87.68;100442.59;5028813;28;20112;-72
2023/01/05 08:28:54;;;;;;;4.07;0.95;;;;;;;10.62;89.01;100447.50;5031580;28;20080;-71
2023/01/05 08:31:30;;;;;;;3.22;0.40;;;;;;;10.81;87.92;100447.44;5031094;28;20553;-72
2023/01/05 08:34:01;;;;;;;1.80;0.50;;;;;;;10.77;87.54;100457.38;5027439;28;20029;-71
2023/01/05 08:36:26;;;;;;;1.42;0.57;;;;;;;10.84;88.32;100470.94;5030329;28;20029;-71
2023/01/05 08:38:53;;;;;;;7.93;0.60;;;;;;;10.78;88.45;100458.94;5022985;28;20656;-72
2023/01/05 08:41:27;;;;;;;4.05;0.93;;;;;;;10.80;89.02;100473.59;5029762;28;20037;-71
2023/01/05 08:43:58;;;;;;;6.28;0.90;;;;;;;10.91;88.22;100476.47;5031712;28;20041;-72
2023/01/05 08:46:26;;;;;;;1.05;0.55;;;;;;;10.82;89.22;100484.78;5031712;28;20037;-72
2023/01/05 08:48:54;;;;;;;2.05;0.45;;;;;;;10.71;90.82;100497.28;5029831;28;20075;-72
2023/01/05 08:51:20;;;;;;;0.35;0.30;;;;;;;10.58;93.09;100513.97;5029315;28;20090;-72
2023/01/05 08:53:46;;;;;;;4.13;0.52;;;;;;;10.68;93.46;100521.47;5031026;28;20033;-72
2023/01/05 08:56:12;;;;;;;1.42;0.60;;;;;;;10.87;92.66;100529.50;5031262;28;20029;-72
2023/01/05 08:58:38;;;;;;;0.73;0.57;;;;;;;10.94;92.71;100539.63;5030621;28;20031;-72
2023/01/05 09:01:08;;;;;;;1.40;0.40;;;;;;;10.95;93.39;100547.34;5027233;28;20034;-72
2023/01/05 09:03:34;;;;;;;3.08;0.73;;;;;;;10.98;93.47;100545.81;5029530;28;20037;-72
2023/01/05 09:06:02;;;;;;;1.10;0.40;;;;;;;10.90;94.09;100555.72;5036273;28;20107;-72
2023/01/05 09:08:32;;;;;;;2.47;0.52;;;;;;;10.81;94.52;100563.25;5033854;28;20041;-72
2023/01/05 09:11:09;;;;;;;1.60;0.73;;;;;;;10.80;94.85;100551.69;5022269;28;20029;-72
2023/01/05 09:13:36;;;;;;;0.93;0.57;;;;;;;10.63;96.22;100562.94;5030785;28;20048;-72
2023/01/05 09:16:07;;;;;;;1.38;0.35;;;;;;;10.56;96.34;100576.28;5030706;28;20079;-72
2023/01/05 09:18:34;;;;;;;0.95;0.40;;;;;;;10.56;96.90;100576.28;5026376;28;20496;-72
2023/01/05 09:20:59;;;;;;;7.03;0.63;;;;;;;10.65;96.94;100579.50;5021996;28;20557;-72
2023/01/05 09:23:25;;;;;;;2.97;0.95;;;;;;;10.82;96.45;100589.03;5030193;28;20068;-72
2023/01/05 09:25:51;;;;;;;1.90;0.75;;;;;;;10.75;96.66;100595.09;5027948;28;20025;-72
2023/01/05 09:28:16;;;;;;;2.75;0.63;;;;;;;10.78;97.00;100604.38;5030110;28;20034;-72
2023/01/05 09:30:42;;;;;;;0.60;0.60;;;;;;;10.73;96.89;100610.84;5029877;28;20110;-72
2023/01/05 09:33:07;;;;;;;2.35;0.70;;;;;;;10.79;96.98;100609.41;5026287;28;20052;-72
2023/01/05 09:35:32;;;;;;;1.75;0.57;;;;;;;11.04;95.32;100619.84;5029694;28;20057;-72
2023/01/05 09:37:58;;;;;;;3.00;0.63;;;;;;;11.01;95.11;100618.66;5030531;28;20056;-72
2023/01/05 09:40:24;;;;;;;1.30;0.80;;;;;;;10.88;95.28;100631.50;5023828;28;20398;-72
2023/01/05 09:42:51;;;;;;;4.20;1.05;;;;;;;10.78;95.85;100634.00;5027007;28;20037;-72
2023/01/05 09:45:25;;;;;;;1.92;0.50;;;;;;;10.91;96.17;100632.72;5028485;28;20045;-72
2023/01/05 09:47:52;;;;;;;1.42;0.30;;;;;;;10.89;94.92;100638.47;5033730;28;20037;-71
2023/01/05 09:50:24;;;;;;;0.43;0.40;;;;;;;10.97;94.93;100635.91;5033843;28;20040;-72
2023/01/05 09:52:55;;;;;;;0.38;0.38;;;;;;;11.04;94.19;100644.09;5047374;28;20044;-72
2023/01/05 09:55:24;;;;;;;2.17;0.53;;;;;;;11.03;94.28;100651.44;5050281;28;20250;-71
2023/01/05 09:57:57;;;;;;;5.93;1.00;;;;;;;11.04;93.39;100647.56;5042032;28;20044;-72
2023/01/05 10:00:25;;;;;;;5.82;0.70;;;;;;;11.11;93.67;100653.09;5054148;28;20037;-71
2023/01/05 10:03:10;;;;;;;3.95;1.20;;;;;;;11.07;93.64;100673.81;5054430;28;20068;-72
2023/01/05 10:05:40;;;;;;;4.82;1.30;;;;;;;11.15;93.67;100659.31;5045193;28;20044;-73
2023/01/05 10:08:23;;;;;;;1.23;0.52;;;;;;;11.31;92.91;100667.31;5042518;28;20028;-72
2023/01/05 10:13:48;;;;;;;1.10;0.38;;;;;;;11.21;91.58;100681.38;5043803;28;20048;-72
2023/01/05 10:16:16;;;;;;;4.43;0.70;;;;;;;11.21;91.23;100681.38;5047722;28;20053;-71
2023/01/05 10:18:42;;;;;;;7.63;0.80;;;;;;;11.14;90.82;100689.34;5037352;28;20028;-72
2023/01/05 10:22:01;;;;;;;4.18;0.80;;;;;;;11.24;89.43;100691.44;5028228;28;20029;-72
2023/01/05 10:24:37;;;;;;;1.25;0.95;;;;;;;10.99;89.73;100699.06;5019154;28;20166;-72
2023/01/05 10:27:21;;;;;;;1.48;0.50;;;;;;;11.05;90.42;100697.66;5016821;28;20072;-72
2023/01/05 10:29:50;;;;;;;4.75;1.15;;;;;;;10.99;90.10;100698.28;5041572;28;20266;-71
2023/01/05 10:32:25;;;;;;;0.50;0.40;;;;;;;11.03;90.23;100712.63;5040514;28;20033;-71
2023/01/05 10:35:36;;;;;;;4.57;0.68;;;;;;;11.17;89.95;100712.91;5047353;28;20041;-71
2023/01/05 10:38:14;;;;;;;;;;;;;;;11.10;90.23;100723.53;4980361;28;20498;-70
2023/01/05 10:41:01;;;;;;;1.27;0.50;;;;;;;11.01;89.41;100729.16;5049113;28;19913;-71
2023/01/05 10:44:04;;;;;;;15.88;1.13;;;;;;;11.06;88.79;100725.38;5022529;28;20029;-72
2023/01/05 10:46:30;;;;;;;2.55;1.20;;;;;;;11.05;87.73;100723.81;5031607;28;20033;-71
2023/01/05 10:48:56;;;;;;;3.15;0.77;;;;;;;10.96;87.94;100736.72;5051787;28;20112;-71
2023/01/05 10:51:22;;;;;;;0.93;0.30;;;;;;;10.92;88.49;100733.19;5043081;28;20077;-71
2023/01/05 10:53:47;;;;;;;4.95;0.73;;;;;;;10.89;88.50;100729.28;5045825;28;20053;-71
2023/01/05 10:56:22;;;;;;;1.10;0.50;;;;;;;11.04;87.66;100738.41;5052736;28;20021;-71
2023/01/05 10:58:48;;;;;;;4.20;1.08;;;;;;;10.92;88.15;100749.34;5041970;28;20029;-71
2023/01/05 11:01:18;;;;;;;2.40;0.70;;;;;;;10.80;88.51;100742.19;5044034;28;20120;-71
2023/01/05 11:03:47;;;;;;;4.22;1.30;;;;;;;10.85;87.85;100745.38;5046264;28;20033;-71
2023/01/05 11:06:24;;;;;;;5.88;0.65;;;;;;;10.82;87.63;100747.97;5038474;28;20454;-71
2023/01/05 11:08:50;;;;;;;0.93;0.57;;;;;;;10.73;88.59;100748.19;5030290;28;20045;-71
2023/01/05 11:11:34;;;;;;;1.95;0.50;;;;;;;10.81;88.45;100752.59;5032926;28;20029;-71
2023/01/05 11:13:59;;;;;;;7.40;0.70;;;;;;;10.71;88.49;100758.53;5037067;28;20446;-71
2023/01/05 11:16:31;;;;;;;4.40;0.88;;;;;;;10.80;88.34;100761.81;5042913;28;20060;-72
2023/01/05 11:19:01;;;;;;;11.82;1.67;;;;;;;10.76;88.35;100766.34;5047664;28;20139;-71
2023/01/05 11:21:44;;;;;;;1.97;0.90;;;;;;;10.77;88.62;100770.59;5040924;28;20033;-72
2023/01/05 11:24:22;;;;;;;5.00;1.10;;;;;;;10.74;88.85;100765.16;5030928;28;20226;-71
2023/01/05 11:26:50;;;;;;;1.48;0.60;;;;;;;10.61;88.87;100775.25;5033155;28;20639;-71
2023/01/05 11:29:16;;;;;;;1.75;0.60;;;;;;;10.58;89.45;100769.78;5033254;28;20063;-72
2023/01/05 11:32:10;;;;;;;2.83;0.70;;;;;;;10.74;88.70;100775.91;5030431;28;20470;-71
2023/01/05 11:34:38;;;;;;;7.03;0.85;;;;;;;10.70;88.12;100777.75;5032914;28;20049;-71
2023/01/05 11:37:06;;;;;;;2.47;0.30;;;;;;;10.49;89.43;100780.75;5043355;28;20025;-71
2023/01/05 11:39:40;;;;;;;6.78;0.70;;;;;;;10.52;89.32;100781.97;5030649;28;20034;-71
2023/01/05 11:42:11;;;;;;;5.75;0.82;;;;;;;10.34;89.82;100789.63;5040602;28;20056;-71
2023/01/05 11:44:40;;;;;;;3.03;0.70;;;;;;;10.61;88.77;100799.47;5043337;28;20116;-72
2023/01/05 11:47:07;;;;;;;5.18;0.40;;;;;;;10.61;89.06;100796.78;5036817;28;20024;-71
2023/01/05 11:49:33;;;;;;;1.77;0.40;;;;;;;10.55;89.26;100800.88;5036985;28;20117;-72
2023/01/05 11:51:59;;;;;;;2.47;0.45;;;;;;;10.60;88.86;100799.84;5042529;28;20033;-72
2023/01/05 11:54:32;;;;;;;1.98;0.65;;;;;;;10.66;89.09;100804.63;5031525;28;20055;-72
2023/01/05 11:57:10;;;;;;;5.28;1.00;;;;;;;10.79;88.37;100813.34;5044731;28;20398;-71
2023/01/05 11:59:36;;;;;;;0.93;0.68;;;;;;;10.87;87.97;100820.44;5037780;28;20034;-72
2023/01/05 12:02:38;;;;;;;0.43;0.30;;;;;;;10.78;88.13;100822.56;5040595;28;20025;-72
2023/01/05 12:05:34;;;;;;;0.22;0.22;;;;;;;10.88;88.66;100822.00;5044764;28;20040;-72
2023/01/05 12:08:12;;;;;;;4.43;0.55;;;;;;;11.06;88.47;100827.78;5044066;28;20021;-72
2023/01/05 12:10:54;;;;;;;1.95;1.45;;;;;;;11.29;88.04;100837.50;5043052;28;20047;-72
2023/01/05 12:13:41;;;;;;;0.85;0.45;;;;;;;11.33;87.41;100830.28;5038378;28;20029;-72
2023/01/05 12:16:25;;;;;;;3.70;0.82;;;;;;;11.31;87.37;100835.25;5051757;28;20076;-69